sensor_id;sensor_type;location;lat;lon;timestamp;temperature;humidity
35613;DHT22;22054;51.646;7.078;2022-07-05T00:02:15;16.80;1.00
35613;DHT22;22054;51.646;7.078;2022-07-05T00:04:41;16.80;1.00
35613;DHT22;22054;51.646;7.078;2022-07-05T00:07:07;16.80;1.00
35613;DHT22;22054;51.646;7.078;2022-07-05T00:09:50;16.80;1.00
35613;DHT22;22054;51.646;7.078;2022-07-05T00:12:18;16.70;1.00
35613;DHT22;22054;51.646;7.078;2022-07-05T00:14:45;16.60;1.00
35613;DHT22;22054;51.646;7.078;2022-07-05T00:17:12;16.60;1.00
35613;DHT22;22054;51.646;7.078;2022-07-05T00:19:38;16.50;1.00
35613;DHT22;22054;51.646;7.078;2022-07-05T00:22:04;16.50;1.00
35613;DHT22;22054;51.646;7.078;2022-07-05T00:24:30;16.50;1.00
35613;DHT22;22054;51.646;7.078;2022-07-05T00:26:56;16.50;1.00
35613;DHT22;22054;51.646;7.078;2022-07-05T00:29:22;16.50;1.00
35613;DHT22;22054;51.646;7.078;2022-07-05T00:31:48;16.50;1.00
35613;DHT22;22054;51.646;7.078;2022-07-05T00:34:14;16.40;1.00
35613;DHT22;22054;51.646;7.078;2022-07-05T00:36:40;16.60;1.00
35613;DHT22;22054;51.646;7.078;2022-07-05T00:39:06;16.60;1.00
35613;DHT22;22054;51.646;7.078;2022-07-05T00:41:33;16.60;1.00
35613;DHT22;22054;51.646;7.078;2022-07-05T00:44:04;16.60;1.00
35613;DHT22;22054;51.646;7.078;2022-07-05T00:46:32;16.60;1.00
35613;DHT22;22054;51.646;7.078;2022-07-05T00:48:59;16.70;1.00
35613;DHT22;22054;51.646;7.078;2022-07-05T00:51:26;16.70;1.00
35613;DHT22;22054;51.646;7.078;2022-07-05T00:53:55;16.70;1.00
35613;DHT22;22054;51.646;7.078;2022-07-05T00:56:23;16.70;1.00
35613;DHT22;22054;51.646;7.078;2022-07-05T00:58:50;16.80;1.00
35613;DHT22;22054;51.646;7.078;2022-07-05T01:01:16;16.90;1.00
35613;DHT22;22054;51.646;7.078;2022-07-05T01:03:44;16.90;1.00
35613;DHT22;22054;51.646;7.078;2022-07-05T01:06:11;16.90;1.00
35613;DHT22;22054;51.646;7.078;2022-07-05T01:08:41;16.90;1.00
35613;DHT22;22054;51.646;7.078;2022-07-05T01:11:10;16.90;1.00
35613;DHT22;22054;51.646;7.078;2022-07-05T01:13:37;16.80;1.00
35613;DHT22;22054;51.646;7.078;2022-07-05T01:16:04;16.80;1.00
35613;DHT22;22054;51.646;7.078;2022-07-05T01:18:31;16.70;1.00
35613;DHT22;22054;51.646;7.078;2022-07-05T01:20:59;16.70;1.00
35613;DHT22;22054;51.646;7.078;2022-07-05T01:23:32;16.70;1.00
35613;DHT22;22054;51.646;7.078;2022-07-05T01:26:00;16.70;1.00
35613;DHT22;22054;51.646;7.078;2022-07-05T01:28:28;16.70;1.00
35613;DHT22;22054;51.646;7.078;2022-07-05T01:30:54;16.60;1.00
35613;DHT22;22054;51.646;7.078;2022-07-05T01:33:29;16.70;1.00
35613;DHT22;22054;51.646;7.078;2022-07-05T01:35:57;16.60;1.00
35613;DHT22;22054;51.646;7.078;2022-07-05T01:38:24;16.60;1.00
35613;DHT22;22054;51.646;7.078;2022-07-05T01:40:50;16.60;1.00
35613;DHT22;22054;51.646;7.078;2022-07-05T01:43:18;16.60;1.00
35613;DHT22;22054;51.646;7.078;2022-07-05T01:45:46;16.50;1.00
35613;DHT22;22054;51.646;7.078;2022-07-05T01:48:18;16.40;1.00
35613;DHT22;22054;51.646;7.078;2022-07-05T01:51:15;16.40;1.00
35613;DHT22;22054;51.646;7.078;2022-07-05T01:53:44;16.40;1.00
35613;DHT22;22054;51.646;7.078;2022-07-05T01:56:10;16.30;1.00
35613;DHT22;22054;51.646;7.078;2022-07-05T01:58:35;16.30;1.00
35613;DHT22;22054;51.646;7.078;2022-07-05T02:01:01;16.30;1.00
35613;DHT22;22054;51.646;7.078;2022-07-05T02:03:27;16.40;1.00
35613;DHT22;22054;51.646;7.078;2022-07-05T02:09:34;16.30;1.00
35613;DHT22;22054;51.646;7.078;2022-07-05T02:12:02;16.40;1.00
35613;DHT22;22054;51.646;7.078;2022-07-05T02:14:29;16.10;1.00
35613;DHT22;22054;51.646;7.078;2022-07-05T02:16:55;16.10;1.00
35613;DHT22;22054;51.646;7.078;2022-07-05T02:19:20;16.00;1.00
35613;DHT22;22054;51.646;7.078;2022-07-05T02:21:46;16.20;1.00
35613;DHT22;22054;51.646;7.078;2022-07-05T02:24:12;16.00;1.00
35613;DHT22;22054;51.646;7.078;2022-07-05T02:26:38;16.00;1.00
35613;DHT22;22054;51.646;7.078;2022-07-05T02:29:04;16.00;1.00
35613;DHT22;22054;51.646;7.078;2022-07-05T02:31:30;16.00;1.00
35613;DHT22;22054;51.646;7.078;2022-07-05T02:33:56;16.00;1.00
35613;DHT22;22054;51.646;7.078;2022-07-05T02:36:22;15.90;1.00
35613;DHT22;22054;51.646;7.078;2022-07-05T02:38:48;15.90;1.00
35613;DHT22;22054;51.646;7.078;2022-07-05T02:41:13;15.90;1.00
35613;DHT22;22054;51.646;7.078;2022-07-05T02:43:40;15.90;1.00
35613;DHT22;22054;51.646;7.078;2022-07-05T02:46:07;15.90;1.00
35613;DHT22;22054;51.646;7.078;2022-07-05T02:48:34;16.00;1.00
35613;DHT22;22054;51.646;7.078;2022-07-05T02:51:01;15.90;1.00
35613;DHT22;22054;51.646;7.078;2022-07-05T02:53:27;15.90;1.00
35613;DHT22;22054;51.646;7.078;2022-07-05T02:55:54;15.80;1.00
35613;DHT22;22054;51.646;7.078;2022-07-05T02:58:20;15.80;1.00
35613;DHT22;22054;51.646;7.078;2022-07-05T03:00:47;15.80;1.00
35613;DHT22;22054;51.646;7.078;2022-07-05T03:03:14;15.80;1.00
35613;DHT22;22054;51.646;7.078;2022-07-05T03:05:41;15.80;1.00
35613;DHT22;22054;51.646;7.078;2022-07-05T03:08:06;15.70;1.00
35613;DHT22;22054;51.646;7.078;2022-07-05T03:10:33;15.70;1.00
35613;DHT22;22054;51.646;7.078;2022-07-05T03:12:59;15.70;1.00
35613;DHT22;22054;51.646;7.078;2022-07-05T03:15:25;15.70;1.00
35613;DHT22;22054;51.646;7.078;2022-07-05T03:17:51;15.70;1.00
35613;DHT22;22054;51.646;7.078;2022-07-05T03:20:17;15.60;1.00
35613;DHT22;22054;51.646;7.078;2022-07-05T03:22:43;15.50;1.00
35613;DHT22;22054;51.646;7.078;2022-07-05T03:25:09;15.50;1.00
35613;DHT22;22054;51.646;7.078;2022-07-05T03:27:35;15.50;1.00
35613;DHT22;22054;51.646;7.078;2022-07-05T03:30:02;15.40;1.00
35613;DHT22;22054;51.646;7.078;2022-07-05T03:32:29;15.40;1.00
35613;DHT22;22054;51.646;7.078;2022-07-05T03:34:54;15.40;1.00
35613;DHT22;22054;51.646;7.078;2022-07-05T03:37:20;15.40;1.00
35613;DHT22;22054;51.646;7.078;2022-07-05T03:39:46;15.40;1.00
35613;DHT22;22054;51.646;7.078;2022-07-05T03:42:11;15.50;1.00
35613;DHT22;22054;51.646;7.078;2022-07-05T03:44:37;15.50;1.00
35613;DHT22;22054;51.646;7.078;2022-07-05T03:47:03;15.40;1.00
35613;DHT22;22054;51.646;7.078;2022-07-05T03:49:29;15.50;1.00
35613;DHT22;22054;51.646;7.078;2022-07-05T03:51:54;15.50;1.00
35613;DHT22;22054;51.646;7.078;2022-07-05T03:54:20;15.50;1.00
35613;DHT22;22054;51.646;7.078;2022-07-05T03:56:46;15.50;1.00
35613;DHT22;22054;51.646;7.078;2022-07-05T03:59:12;15.50;1.00
35613;DHT22;22054;51.646;7.078;2022-07-05T04:01:37;15.50;1.00
35613;DHT22;22054;51.646;7.078;2022-07-05T04:04:03;15.50;1.00
35613;DHT22;22054;51.646;7.078;2022-07-05T04:06:29;15.50;1.00
35613;DHT22;22054;51.646;7.078;2022-07-05T04:08:55;15.50;1.00
35613;DHT22;22054;51.646;7.078;2022-07-05T04:11:20;15.50;1.00
35613;DHT22;22054;51.646;7.078;2022-07-05T04:13:46;15.40;1.00
35613;DHT22;22054;51.646;7.078;2022-07-05T04:16:12;15.40;1.00
35613;DHT22;22054;51.646;7.078;2022-07-05T04:18:38;15.40;1.00
35613;DHT22;22054;51.646;7.078;2022-07-05T04:21:05;15.50;1.00
35613;DHT22;22054;51.646;7.078;2022-07-05T04:23:31;15.40;1.00
35613;DHT22;22054;51.646;7.078;2022-07-05T04:25:57;15.40;1.00
35613;DHT22;22054;51.646;7.078;2022-07-05T04:28:23;15.40;1.00
35613;DHT22;22054;51.646;7.078;2022-07-05T04:30:48;15.50;1.00
35613;DHT22;22054;51.646;7.078;2022-07-05T04:33:14;15.50;1.00
35613;DHT22;22054;51.646;7.078;2022-07-05T04:35:40;15.50;1.00
35613;DHT22;22054;51.646;7.078;2022-07-05T04:38:06;15.60;1.00
35613;DHT22;22054;51.646;7.078;2022-07-05T04:40:32;15.60;1.00
35613;DHT22;22054;51.646;7.078;2022-07-05T04:42:57;15.60;1.00
35613;DHT22;22054;51.646;7.078;2022-07-05T04:45:23;15.70;1.00
35613;DHT22;22054;51.646;7.078;2022-07-05T04:47:49;15.90;1.00
35613;DHT22;22054;51.646;7.078;2022-07-05T04:50:15;15.80;1.00
35613;DHT22;22054;51.646;7.078;2022-07-05T04:52:40;15.90;1.00
35613;DHT22;22054;51.646;7.078;2022-07-05T04:55:06;15.90;1.00
35613;DHT22;22054;51.646;7.078;2022-07-05T04:57:42;16.00;1.00
35613;DHT22;22054;51.646;7.078;2022-07-05T05:00:12;16.10;1.00
35613;DHT22;22054;51.646;7.078;2022-07-05T05:02:39;16.20;1.00
35613;DHT22;22054;51.646;7.078;2022-07-05T05:05:06;16.30;1.00
35613;DHT22;22054;51.646;7.078;2022-07-05T05:07:32;16.40;1.00
35613;DHT22;22054;51.646;7.078;2022-07-05T05:09:58;16.60;1.00
35613;DHT22;22054;51.646;7.078;2022-07-05T05:12:24;16.70;1.00
35613;DHT22;22054;51.646;7.078;2022-07-05T05:14:50;16.90;1.00
35613;DHT22;22054;51.646;7.078;2022-07-05T05:17:16;17.00;1.00
35613;DHT22;22054;51.646;7.078;2022-07-05T05:19:42;17.10;1.00
35613;DHT22;22054;51.646;7.078;2022-07-05T05:22:08;17.30;1.00
35613;DHT22;22054;51.646;7.078;2022-07-05T05:24:34;17.50;1.00
35613;DHT22;22054;51.646;7.078;2022-07-05T05:27:00;17.60;1.00
35613;DHT22;22054;51.646;7.078;2022-07-05T05:29:26;17.80;1.00
35613;DHT22;22054;51.646;7.078;2022-07-05T05:31:53;17.50;1.00
35613;DHT22;22054;51.646;7.078;2022-07-05T05:34:19;17.60;1.00
35613;DHT22;22054;51.646;7.078;2022-07-05T05:36:44;17.50;1.00
35613;DHT22;22054;51.646;7.078;2022-07-05T05:39:10;17.60;1.00
35613;DHT22;22054;51.646;7.078;2022-07-05T05:41:36;17.60;1.00
35613;DHT22;22054;51.646;7.078;2022-07-05T05:44:02;17.70;1.00
35613;DHT22;22054;51.646;7.078;2022-07-05T05:46:28;17.80;1.00
35613;DHT22;22054;51.646;7.078;2022-07-05T05:48:54;18.00;1.00
35613;DHT22;22054;51.646;7.078;2022-07-05T05:51:20;18.20;1.00
35613;DHT22;22054;51.646;7.078;2022-07-05T05:53:46;18.50;99.90
35613;DHT22;22054;51.646;7.078;2022-07-05T05:56:15;18.80;99.90
35613;DHT22;22054;51.646;7.078;2022-07-05T05:58:41;18.90;1.00
35613;DHT22;22054;51.646;7.078;2022-07-05T06:01:06;19.20;1.00
35613;DHT22;22054;51.646;7.078;2022-07-05T06:03:32;19.30;1.00
35613;DHT22;22054;51.646;7.078;2022-07-05T06:05:58;19.40;1.00
35613;DHT22;22054;51.646;7.078;2022-07-05T06:08:24;19.60;1.00
35613;DHT22;22054;51.646;7.078;2022-07-05T06:10:49;19.60;1.00
35613;DHT22;22054;51.646;7.078;2022-07-05T06:13:15;19.60;99.90
35613;DHT22;22054;51.646;7.078;2022-07-05T06:15:42;19.80;1.00
35613;DHT22;22054;51.646;7.078;2022-07-05T06:18:08;19.80;99.90
35613;DHT22;22054;51.646;7.078;2022-07-05T06:20:36;20.00;96.00
35613;DHT22;22054;51.646;7.078;2022-07-05T06:23:03;20.10;1.00
35613;DHT22;22054;51.646;7.078;2022-07-05T06:25:31;20.00;99.90
35613;DHT22;22054;51.646;7.078;2022-07-05T06:27:59;20.10;1.00
35613;DHT22;22054;51.646;7.078;2022-07-05T06:30:28;19.90;96.30
35613;DHT22;22054;51.646;7.078;2022-07-05T06:32:55;19.80;1.00
35613;DHT22;22054;51.646;7.078;2022-07-05T06:35:22;19.90;1.00
35613;DHT22;22054;51.646;7.078;2022-07-05T06:37:53;20.00;1.00
35613;DHT22;22054;51.646;7.078;2022-07-05T06:40:33;20.10;1.00
35613;DHT22;22054;51.646;7.078;2022-07-05T06:43:06;20.20;99.90
35613;DHT22;22054;51.646;7.078;2022-07-05T06:45:33;20.30;99.90
35613;DHT22;22054;51.646;7.078;2022-07-05T06:48:03;20.30;1.00
35613;DHT22;22054;51.646;7.078;2022-07-05T06:50:35;20.00;43.70
35613;DHT22;22054;51.646;7.078;2022-07-05T06:53:03;19.90;99.90
35613;DHT22;22054;51.646;7.078;2022-07-05T06:55:29;20.10;1.00
35613;DHT22;22054;51.646;7.078;2022-07-05T06:58:04;20.10;1.00
35613;DHT22;22054;51.646;7.078;2022-07-05T07:00:31;20.20;1.00
35613;DHT22;22054;51.646;7.078;2022-07-05T07:02:57;20.10;1.00
35613;DHT22;22054;51.646;7.078;2022-07-05T07:05:23;20.30;99.90
35613;DHT22;22054;51.646;7.078;2022-07-05T07:07:49;20.50;99.90
35613;DHT22;22054;51.646;7.078;2022-07-05T07:10:34;20.60;96.30
35613;DHT22;22054;51.646;7.078;2022-07-05T07:13:00;20.60;99.90
35613;DHT22;22054;51.646;7.078;2022-07-05T07:15:27;20.40;1.00
35613;DHT22;22054;51.646;7.078;2022-07-05T07:17:53;20.40;1.00
35613;DHT22;22054;51.646;7.078;2022-07-05T07:20:19;20.50;22.40
35613;DHT22;22054;51.646;7.078;2022-07-05T07:22:45;20.70;1.00
35613;DHT22;22054;51.646;7.078;2022-07-05T07:25:11;20.80;1.00
35613;DHT22;22054;51.646;7.078;2022-07-05T07:27:51;21.00;1.00
35613;DHT22;22054;51.646;7.078;2022-07-05T07:30:21;20.90;1.00
35613;DHT22;22054;51.646;7.078;2022-07-05T07:32:49;21.00;1.00
35613;DHT22;22054;51.646;7.078;2022-07-05T07:35:15;20.80;1.00
35613;DHT22;22054;51.646;7.078;2022-07-05T07:37:41;21.00;1.00
35613;DHT22;22054;51.646;7.078;2022-07-05T07:40:07;21.00;1.00
35613;DHT22;22054;51.646;7.078;2022-07-05T07:42:34;21.10;1.00
35613;DHT22;22054;51.646;7.078;2022-07-05T07:45:00;21.00;1.00
35613;DHT22;22054;51.646;7.078;2022-07-05T07:47:32;20.80;1.00
35613;DHT22;22054;51.646;7.078;2022-07-05T07:49:58;20.80;1.00
35613;DHT22;22054;51.646;7.078;2022-07-05T07:52:25;20.70;1.00
35613;DHT22;22054;51.646;7.078;2022-07-05T07:54:50;20.70;1.00
35613;DHT22;22054;51.646;7.078;2022-07-05T07:57:16;20.90;1.00
35613;DHT22;22054;51.646;7.078;2022-07-05T07:59:42;20.90;1.00
35613;DHT22;22054;51.646;7.078;2022-07-05T08:02:07;20.80;1.00
35613;DHT22;22054;51.646;7.078;2022-07-05T08:04:34;20.60;1.00
35613;DHT22;22054;51.646;7.078;2022-07-05T08:07:00;20.70;1.00
35613;DHT22;22054;51.646;7.078;2022-07-05T08:09:25;20.80;1.00
35613;DHT22;22054;51.646;7.078;2022-07-05T08:11:51;21.00;1.00
35613;DHT22;22054;51.646;7.078;2022-07-05T08:14:17;21.10;1.00
35613;DHT22;22054;51.646;7.078;2022-07-05T08:16:46;21.00;1.00
35613;DHT22;22054;51.646;7.078;2022-07-05T08:19:12;21.20;1.00
35613;DHT22;22054;51.646;7.078;2022-07-05T08:21:56;21.40;1.00
35613;DHT22;22054;51.646;7.078;2022-07-05T08:24:22;21.30;1.00
35613;DHT22;22054;51.646;7.078;2022-07-05T08:26:48;21.50;99.90
35613;DHT22;22054;51.646;7.078;2022-07-05T08:29:14;21.40;99.90
35613;DHT22;22054;51.646;7.078;2022-07-05T08:31:45;21.50;99.90
35613;DHT22;22054;51.646;7.078;2022-07-05T08:34:12;21.90;99.90
35613;DHT22;22054;51.646;7.078;2022-07-05T08:36:39;21.60;99.90
35613;DHT22;22054;51.646;7.078;2022-07-05T08:39:07;21.50;99.90
35613;DHT22;22054;51.646;7.078;2022-07-05T08:41:36;21.40;99.90
35613;DHT22;22054;51.646;7.078;2022-07-05T08:44:03;21.20;99.90
35613;DHT22;22054;51.646;7.078;2022-07-05T08:46:31;21.00;99.90
35613;DHT22;22054;51.646;7.078;2022-07-05T08:49:00;21.20;99.90
35613;DHT22;22054;51.646;7.078;2022-07-05T08:51:28;21.60;99.90
35613;DHT22;22054;51.646;7.078;2022-07-05T08:53:54;21.70;99.90
35613;DHT22;22054;51.646;7.078;2022-07-05T08:56:23;21.80;99.90
35613;DHT22;22054;51.646;7.078;2022-07-05T08:58:49;21.90;99.90
35613;DHT22;22054;51.646;7.078;2022-07-05T09:01:15;21.60;99.90
35613;DHT22;22054;51.646;7.078;2022-07-05T09:03:48;21.60;99.90
35613;DHT22;22054;51.646;7.078;2022-07-05T09:06:20;21.70;99.90
35613;DHT22;22054;51.646;7.078;2022-07-05T09:08:54;22.20;99.90
35613;DHT22;22054;51.646;7.078;2022-07-05T09:11:24;22.20;99.90
35613;DHT22;22054;51.646;7.078;2022-07-05T09:14:04;22.20;99.90
35613;DHT22;22054;51.646;7.078;2022-07-05T09:16:31;22.20;99.90
35613;DHT22;22054;51.646;7.078;2022-07-05T09:19:05;22.10;99.90
35613;DHT22;22054;51.646;7.078;2022-07-05T09:21:31;22.30;99.90
35613;DHT22;22054;51.646;7.078;2022-07-05T09:24:00;22.60;99.90
35613;DHT22;22054;51.646;7.078;2022-07-05T09:26:40;22.70;99.90
35613;DHT22;22054;51.646;7.078;2022-07-05T09:29:15;22.60;99.90
35613;DHT22;22054;51.646;7.078;2022-07-05T09:31:46;22.70;99.90
35613;DHT22;22054;51.646;7.078;2022-07-05T09:34:16;22.80;99.90
35613;DHT22;22054;51.646;7.078;2022-07-05T09:36:59;22.60;99.90
35613;DHT22;22054;51.646;7.078;2022-07-05T09:44:58;22.10;99.90
35613;DHT22;22054;51.646;7.078;2022-07-05T09:47:27;21.80;99.90
35613;DHT22;22054;51.646;7.078;2022-07-05T09:49:57;22.10;99.90
35613;DHT22;22054;51.646;7.078;2022-07-05T09:52:36;22.30;99.90
35613;DHT22;22054;51.646;7.078;2022-07-05T09:55:07;22.70;99.90
35613;DHT22;22054;51.646;7.078;2022-07-05T09:57:37;22.90;99.90
35613;DHT22;22054;51.646;7.078;2022-07-05T10:00:10;23.00;99.90
35613;DHT22;22054;51.646;7.078;2022-07-05T10:02:44;23.10;53.40
35613;DHT22;22054;51.646;7.078;2022-07-05T10:05:25;23.20;9.60
35613;DHT22;22054;51.646;7.078;2022-07-05T10:07:53;22.80;9.90
35613;DHT22;22054;51.646;7.078;2022-07-05T10:10:27;23.20;1.00
35613;DHT22;22054;51.646;7.078;2022-07-05T10:12:56;23.10;1.00
35613;DHT22;22054;51.646;7.078;2022-07-05T10:15:34;23.20;1.00
35613;DHT22;22054;51.646;7.078;2022-07-05T10:18:05;23.10;1.00
35613;DHT22;22054;51.646;7.078;2022-07-05T10:20:41;22.90;1.00
35613;DHT22;22054;51.646;7.078;2022-07-05T10:23:17;22.90;1.00
35613;DHT22;22054;51.646;7.078;2022-07-05T10:25:48;22.60;1.00
35613;DHT22;22054;51.646;7.078;2022-07-05T10:28:16;22.80;1.00
35613;DHT22;22054;51.646;7.078;2022-07-05T10:30:44;22.80;1.00
35613;DHT22;22054;51.646;7.078;2022-07-05T10:33:11;22.90;1.00
35613;DHT22;22054;51.646;7.078;2022-07-05T10:35:42;23.20;1.00
35613;DHT22;22054;51.646;7.078;2022-07-05T10:38:09;23.10;1.00
35613;DHT22;22054;51.646;7.078;2022-07-05T10:40:36;23.40;1.00
35613;DHT22;22054;51.646;7.078;2022-07-05T10:43:03;24.00;1.00
35613;DHT22;22054;51.646;7.078;2022-07-05T10:45:34;24.30;1.00
35613;DHT22;22054;51.646;7.078;2022-07-05T11:11:25;23.10;1.00
35613;DHT22;22054;51.646;7.078;2022-07-05T11:13:52;23.30;1.00
35613;DHT22;22054;51.646;7.078;2022-07-05T11:16:24;23.00;1.00
35613;DHT22;22054;51.646;7.078;2022-07-05T11:19:03;23.10;1.00
35613;DHT22;22054;51.646;7.078;2022-07-05T11:22:04;23.60;1.00
35613;DHT22;22054;51.646;7.078;2022-07-05T11:24:35;24.20;1.00
35613;DHT22;22054;51.646;7.078;2022-07-05T11:27:03;24.20;1.00
35613;DHT22;22054;51.646;7.078;2022-07-05T11:34:52;24.60;1.00
35613;DHT22;22054;51.646;7.078;2022-07-05T11:37:23;24.70;1.00
35613;DHT22;22054;51.646;7.078;2022-07-05T11:42:33;24.50;1.00
35613;DHT22;22054;51.646;7.078;2022-07-05T11:45:08;25.20;1.00
35613;DHT22;22054;51.646;7.078;2022-07-05T11:47:35;25.60;1.00
35613;DHT22;22054;51.646;7.078;2022-07-05T11:50:01;26.00;1.00
35613;DHT22;22054;51.646;7.078;2022-07-05T11:52:27;25.80;1.00
35613;DHT22;22054;51.646;7.078;2022-07-05T11:54:54;25.90;1.00
35613;DHT22;22054;51.646;7.078;2022-07-05T11:57:22;25.70;1.00
35613;DHT22;22054;51.646;7.078;2022-07-05T11:59:49;25.40;1.00
35613;DHT22;22054;51.646;7.078;2022-07-05T12:02:15;25.60;1.00
35613;DHT22;22054;51.646;7.078;2022-07-05T12:04:50;25.90;1.00
35613;DHT22;22054;51.646;7.078;2022-07-05T12:07:27;25.70;1.00
35613;DHT22;22054;51.646;7.078;2022-07-05T12:09:56;26.00;1.00
35613;DHT22;22054;51.646;7.078;2022-07-05T12:12:41;26.40;1.00
35613;DHT22;22054;51.646;7.078;2022-07-05T12:15:20;26.10;1.00
35613;DHT22;22054;51.646;7.078;2022-07-05T12:17:49;25.70;1.00
35613;DHT22;22054;51.646;7.078;2022-07-05T12:20:21;25.90;1.00
35613;DHT22;22054;51.646;7.078;2022-07-05T12:22:48;26.10;1.00
35613;DHT22;22054;51.646;7.078;2022-07-05T12:25:16;27.00;1.00
35613;DHT22;22054;51.646;7.078;2022-07-05T12:27:47;28.70;1.00
35613;DHT22;22054;51.646;7.078;2022-07-05T12:30:15;29.80;1.00
35613;DHT22;22054;51.646;7.078;2022-07-05T12:38:20;29.10;1.00
35613;DHT22;22054;51.646;7.078;2022-07-05T12:40:59;30.20;1.00
35613;DHT22;22054;51.646;7.078;2022-07-05T12:43:25;32.50;1.00
35613;DHT22;22054;51.646;7.078;2022-07-05T12:46:02;34.40;1.00
35613;DHT22;22054;51.646;7.078;2022-07-05T12:48:34;36.00;1.00
35613;DHT22;22054;51.646;7.078;2022-07-05T12:51:02;36.90;1.00
35613;DHT22;22054;51.646;7.078;2022-07-05T12:53:29;36.40;1.00
35613;DHT22;22054;51.646;7.078;2022-07-05T12:56:14;35.50;1.00
35613;DHT22;22054;51.646;7.078;2022-07-05T12:59:03;34.30;1.00
35613;DHT22;22054;51.646;7.078;2022-07-05T13:01:36;32.70;1.00
35613;DHT22;22054;51.646;7.078;2022-07-05T13:09:36;32.20;1.00
35613;DHT22;22054;51.646;7.078;2022-07-05T13:14:51;30.30;1.00
35613;DHT22;22054;51.646;7.078;2022-07-05T13:17:22;30.90;1.00
35613;DHT22;22054;51.646;7.078;2022-07-05T13:19:51;32.40;1.00
35613;DHT22;22054;51.646;7.078;2022-07-05T13:22:19;33.90;1.00
35613;DHT22;22054;51.646;7.078;2022-07-05T13:24:46;33.90;1.00
35613;DHT22;22054;51.646;7.078;2022-07-05T13:27:12;32.20;1.00
35613;DHT22;22054;51.646;7.078;2022-07-05T13:29:39;30.60;1.00
35613;DHT22;22054;51.646;7.078;2022-07-05T13:32:06;29.00;1.00
35613;DHT22;22054;51.646;7.078;2022-07-05T13:34:32;27.80;1.00
35613;DHT22;22054;51.646;7.078;2022-07-05T13:36:58;28.10;1.00
35613;DHT22;22054;51.646;7.078;2022-07-05T13:39:26;30.10;1.00
35613;DHT22;22054;51.646;7.078;2022-07-05T13:41:54;31.10;1.00
35613;DHT22;22054;51.646;7.078;2022-07-05T13:44:21;31.20;1.00
35613;DHT22;22054;51.646;7.078;2022-07-05T13:46:47;31.60;1.00
35613;DHT22;22054;51.646;7.078;2022-07-05T13:49:13;31.70;1.00
35613;DHT22;22054;51.646;7.078;2022-07-05T13:51:39;31.10;1.00
35613;DHT22;22054;51.646;7.078;2022-07-05T13:54:05;29.80;1.00
35613;DHT22;22054;51.646;7.078;2022-07-05T13:56:31;28.80;1.00
35613;DHT22;22054;51.646;7.078;2022-07-05T13:59:03;28.80;1.00
35613;DHT22;22054;51.646;7.078;2022-07-05T14:01:29;29.30;1.00
35613;DHT22;22054;51.646;7.078;2022-07-05T14:03:57;29.00;1.00
35613;DHT22;22054;51.646;7.078;2022-07-05T14:06:24;28.40;1.00
35613;DHT22;22054;51.646;7.078;2022-07-05T14:08:51;27.40;1.00
35613;DHT22;22054;51.646;7.078;2022-07-05T14:11:16;26.80;1.00
35613;DHT22;22054;51.646;7.078;2022-07-05T14:13:42;26.10;1.00
35613;DHT22;22054;51.646;7.078;2022-07-05T14:16:08;26.20;1.00
35613;DHT22;22054;51.646;7.078;2022-07-05T14:18:34;26.10;1.00
35613;DHT22;22054;51.646;7.078;2022-07-05T14:21:00;25.90;1.00
35613;DHT22;22054;51.646;7.078;2022-07-05T14:23:26;27.30;1.00
35613;DHT22;22054;51.646;7.078;2022-07-05T14:25:51;29.90;1.00
35613;DHT22;22054;51.646;7.078;2022-07-05T14:28:18;32.10;1.00
35613;DHT22;22054;51.646;7.078;2022-07-05T14:30:44;32.80;1.00
35613;DHT22;22054;51.646;7.078;2022-07-05T14:33:13;34.00;1.00
35613;DHT22;22054;51.646;7.078;2022-07-05T14:35:39;34.70;1.00
35613;DHT22;22054;51.646;7.078;2022-07-05T14:38:05;34.20;1.00
35613;DHT22;22054;51.646;7.078;2022-07-05T14:40:32;33.50;1.00
35613;DHT22;22054;51.646;7.078;2022-07-05T14:42:58;31.40;1.00
35613;DHT22;22054;51.646;7.078;2022-07-05T14:45:25;31.10;1.00
35613;DHT22;22054;51.646;7.078;2022-07-05T14:47:52;30.20;1.00
35613;DHT22;22054;51.646;7.078;2022-07-05T14:50:19;29.90;1.00
35613;DHT22;22054;51.646;7.078;2022-07-05T14:52:46;29.20;1.00
35613;DHT22;22054;51.646;7.078;2022-07-05T14:55:13;28.00;1.00
35613;DHT22;22054;51.646;7.078;2022-07-05T14:57:40;28.50;1.00
35613;DHT22;22054;51.646;7.078;2022-07-05T15:00:09;28.70;1.00
35613;DHT22;22054;51.646;7.078;2022-07-05T15:02:36;28.80;1.00
35613;DHT22;22054;51.646;7.078;2022-07-05T15:05:03;28.80;1.00
35613;DHT22;22054;51.646;7.078;2022-07-05T15:07:29;28.80;1.00
35613;DHT22;22054;51.646;7.078;2022-07-05T15:09:55;27.90;1.00
35613;DHT22;22054;51.646;7.078;2022-07-05T15:12:21;27.00;1.00
35613;DHT22;22054;51.646;7.078;2022-07-05T15:14:47;26.70;1.00
35613;DHT22;22054;51.646;7.078;2022-07-05T15:17:14;26.40;1.00
35613;DHT22;22054;51.646;7.078;2022-07-05T15:19:40;26.10;1.00
35613;DHT22;22054;51.646;7.078;2022-07-05T15:22:06;25.90;1.00
35613;DHT22;22054;51.646;7.078;2022-07-05T15:24:32;25.80;1.00
35613;DHT22;22054;51.646;7.078;2022-07-05T15:26:58;25.90;1.00
35613;DHT22;22054;51.646;7.078;2022-07-05T15:29:24;26.20;1.00
35613;DHT22;22054;51.646;7.078;2022-07-05T15:31:55;26.40;1.00
35613;DHT22;22054;51.646;7.078;2022-07-05T15:34:21;26.40;1.00
35613;DHT22;22054;51.646;7.078;2022-07-05T15:36:47;26.60;1.00
35613;DHT22;22054;51.646;7.078;2022-07-05T15:39:13;26.40;1.00
35613;DHT22;22054;51.646;7.078;2022-07-05T15:41:38;26.20;1.00
35613;DHT22;22054;51.646;7.078;2022-07-05T15:44:04;26.10;1.00
35613;DHT22;22054;51.646;7.078;2022-07-05T15:46:30;26.00;1.00
35613;DHT22;22054;51.646;7.078;2022-07-05T15:49:14;25.80;1.00
35613;DHT22;22054;51.646;7.078;2022-07-05T15:51:41;25.60;1.00
35613;DHT22;22054;51.646;7.078;2022-07-05T15:54:06;25.40;1.00
35613;DHT22;22054;51.646;7.078;2022-07-05T15:56:32;25.30;1.00
35613;DHT22;22054;51.646;7.078;2022-07-05T15:58:58;25.10;1.00
35613;DHT22;22054;51.646;7.078;2022-07-05T16:01:24;24.80;1.00
35613;DHT22;22054;51.646;7.078;2022-07-05T16:03:49;24.60;1.00
35613;DHT22;22054;51.646;7.078;2022-07-05T16:06:15;24.30;1.00
35613;DHT22;22054;51.646;7.078;2022-07-05T16:08:41;24.10;1.00
35613;DHT22;22054;51.646;7.078;2022-07-05T16:11:06;23.90;1.00
35613;DHT22;22054;51.646;7.078;2022-07-05T16:13:32;23.80;1.00
35613;DHT22;22054;51.646;7.078;2022-07-05T16:15:58;24.00;1.00
35613;DHT22;22054;51.646;7.078;2022-07-05T16:18:40;24.40;1.00
35613;DHT22;22054;51.646;7.078;2022-07-05T16:21:12;24.60;1.00
35613;DHT22;22054;51.646;7.078;2022-07-05T16:23:45;24.80;1.00
35613;DHT22;22054;51.646;7.078;2022-07-05T16:26:14;24.90;1.00
35613;DHT22;22054;51.646;7.078;2022-07-05T16:28:42;24.80;1.00
35613;DHT22;22054;51.646;7.078;2022-07-05T16:31:10;24.70;1.00
35613;DHT22;22054;51.646;7.078;2022-07-05T16:33:40;24.40;1.00
35613;DHT22;22054;51.646;7.078;2022-07-05T16:36:09;24.10;1.00
35613;DHT22;22054;51.646;7.078;2022-07-05T16:38:37;23.70;1.00
35613;DHT22;22054;51.646;7.078;2022-07-05T16:41:04;23.50;1.00
35613;DHT22;22054;51.646;7.078;2022-07-05T16:43:31;23.20;1.00
35613;DHT22;22054;51.646;7.078;2022-07-05T16:45:59;23.10;1.00